Terminal Aerodrome Forecast
Issued by NWS

Home | Current Version | Previous Version | Text Only | Print | Product List | Glossary On
Versions: 1 2 3 4 5 6 7 8 9 10 11 12 13
000
FTUS45 KTFX 241120
TAFCTB
TAF
KCTB 241120Z 2412/2512 25008KT P6SM SCT080 BKN110
     FM241700 27020G28KT P6SM SCT060 SCT090
     FM250300 26015KT P6SM SKC=

USA.gov is the U.S. government's official web portal to all federal, state and local government web resources and services.